Time;durP1;ratioP1;P1;durP2;ratioP2;P2;SDS_P1;SDS_P2;PMS_P1;PMS_P2;Temp;Humidity;BMP_temperature;BMP_pressure;BME280_temperature;BME280_humidity;BME280_pressure;Samples;Min_cycle;Max_cycle;Signal;HPM_P1;HPM_P2
2021/05/26 00:01:45;;;;;;;22.43;10.93;;;9.80;99.90;;;;;;5260541;27;20144;-62
2021/05/26 00:04:12;;;;;;;21.90;9.07;;;9.80;99.90;;;;;;5260736;27;20566;-61
2021/05/26 00:06:39;;;;;;;16.83;8.47;;;9.70;99.90;;;;;;5262183;27;20117;-62
2021/05/26 00:09:06;;;;;;;18.83;7.90;;;9.80;99.90;;;;;;5259894;27;20150;-62
2021/05/26 00:11:32;;;;;;;18.40;8.17;;;9.70;99.90;;;;;;5260086;27;20138;-62
2021/05/26 00:14:00;;;;;;;13.03;7.40;;;9.70;99.90;;;;;;5260346;27;20108;-62
2021/05/26 00:16:26;;;;;;;16.60;7.60;;;9.80;99.90;;;;;;5262777;27;20137;-63
2021/05/26 00:18:52;;;;;;;13.83;6.60;;;9.80;99.90;;;;;;5261193;27;20134;-62
2021/05/26 00:21:19;;;;;;;17.10;6.93;;;9.90;99.90;;;;;;5261653;27;20543;-61
2021/05/26 00:23:46;;;;;;;19.70;5.60;;;10.00;99.90;;;;;;5259308;27;20149;-61
2021/05/26 00:26:12;;;;;;;11.07;5.03;;;10.10;99.90;;;;;;5261196;27;20157;-61
2021/05/26 00:28:41;;;;;;;11.43;5.27;;;10.00;99.90;;;;;;5260197;27;20193;-62
2021/05/26 00:31:09;;;;;;;9.47;5.00;;;10.00;99.90;;;;;;5260507;27;20111;-64
2021/05/26 00:33:36;;;;;;;10.13;3.73;;;9.90;99.90;;;;;;5260418;27;20177;-64
2021/05/26 00:36:03;;;;;;;10.27;3.80;;;9.90;99.90;;;;;;5260817;27;20566;-60
2021/05/26 00:38:29;;;;;;;6.30;4.17;;;9.80;99.90;;;;;;5260095;27;20139;-64
2021/05/26 00:40:56;;;;;;;11.80;4.47;;;9.90;99.90;;;;;;5260283;27;20548;-66
2021/05/26 00:43:22;;;;;;;8.10;4.03;;;9.80;99.90;;;;;;5260060;27;20604;-64
2021/05/26 00:45:49;;;;;;;6.07;4.40;;;9.80;99.90;;;;;;5260159;27;20135;-62
2021/05/26 00:48:16;;;;;;;8.50;4.03;;;9.80;99.90;;;;;;5260186;27;20198;-62
2021/05/26 00:50:43;;;;;;;7.53;4.37;;;9.70;99.90;;;;;;5260328;27;20543;-63
2021/05/26 00:53:11;;;;;;;8.60;4.63;;;9.70;99.90;;;;;;5260732;27;20109;-64
2021/05/26 00:55:38;;;;;;;6.43;3.47;;;9.70;99.90;;;;;;5259754;27;20227;-63
2021/05/26 00:58:06;;;;;;;14.57;4.63;;;9.70;99.90;;;;;;5260078;27;20109;-62
2021/05/26 01:00:35;;;;;;;7.47;4.17;;;9.70;99.90;;;;;;5260984;27;20118;-63
2021/05/26 01:03:02;;;;;;;5.73;3.30;;;9.70;99.90;;;;;;5260982;27;20110;-64
2021/05/26 01:05:30;;;;;;;5.60;3.70;;;9.70;99.90;;;;;;5260130;27;20125;-63
2021/05/26 01:07:56;;;;;;;6.10;4.07;;;9.80;99.90;;;;;;5259934;27;20107;-65
2021/05/26 01:10:25;;;;;;;5.27;3.60;;;9.70;99.90;;;;;;5260575;27;20159;-67
2021/05/26 01:12:51;;;;;;;11.83;4.07;;;9.70;99.90;;;;;;5261342;27;20111;-66
2021/05/26 01:15:18;;;;;;;6.10;3.57;;;9.70;99.90;;;;;;5261283;27;20122;-66
2021/05/26 01:17:46;;;;;;;7.07;3.73;;;9.60;99.90;;;;;;5262396;27;20106;-63
2021/05/26 01:20:19;;;;;;;8.03;3.80;;;9.60;99.90;;;;;;5261379;27;20134;-63
2021/05/26 01:22:46;;;;;;;4.73;3.47;;;9.60;99.90;;;;;;5261062;27;20121;-62
2021/05/26 01:25:13;;;;;;;4.30;3.27;;;9.50;99.90;;;;;;5260656;27;20171;-66
2021/05/26 01:27:40;;;;;;;5.37;3.77;;;9.50;99.90;;;;;;5261448;27;20121;-63
2021/05/26 01:30:08;;;;;;;5.30;3.17;;;9.40;99.90;;;;;;5261119;27;20126;-63
2021/05/26 01:32:40;;;;;;;12.17;3.53;;;9.40;99.90;;;;;;5261315;27;20122;-62
2021/05/26 01:35:08;;;;;;;7.53;3.07;;;9.40;99.90;;;;;;5261230;27;20159;-64
2021/05/26 01:37:39;;;;;;;6.53;3.20;;;9.40;99.90;;;;;;5261290;27;20125;-65
2021/05/26 01:40:09;;;;;;;4.17;3.20;;;9.40;99.90;;;;;;5261233;27;20119;-62
2021/05/26 01:42:36;;;;;;;3.10;2.60;;;9.40;99.90;;;;;;5261029;27;20425;-65
2021/05/26 01:45:06;;;;;;;5.83;2.87;;;9.30;99.90;;;;;;5261489;27;20153;-64
2021/05/26 01:47:33;;;;;;;4.73;2.50;;;9.30;99.90;;;;;;5259765;27;20152;-65
2021/05/26 01:50:00;;;;;;;5.73;2.40;;;9.30;99.90;;;;;;5261176;27;20413;-64
2021/05/26 01:52:26;;;;;;;7.57;3.00;;;9.30;99.90;;;;;;5261072;27;20187;-63
2021/05/26 01:54:53;;;;;;;5.00;2.60;;;9.20;99.90;;;;;;5261184;27;20550;-62
2021/05/26 01:57:20;;;;;;;7.00;2.53;;;9.20;99.90;;;;;;5261024;27;20431;-62
2021/05/26 01:59:46;;;;;;;9.33;2.40;;;9.20;99.90;;;;;;5260984;27;20111;-61
2021/05/26 02:02:13;;;;;;;6.00;3.07;;;9.10;99.90;;;;;;5261531;27;20134;-61
2021/05/26 02:04:39;;;;;;;7.97;3.23;;;9.00;99.90;;;;;;5262117;27;20112;-60
2021/05/26 02:07:08;;;;;;;7.87;2.60;;;9.00;99.90;;;;;;5261013;27;20107;-61
2021/05/26 02:09:35;;;;;;;5.80;3.10;;;9.00;99.90;;;;;;5261294;27;20491;-63
2021/05/26 02:12:21;;;;;;;7.67;3.40;;;9.00;99.90;;;;;;5260997;27;20118;-60
2021/05/26 02:14:49;;;;;;;9.00;3.73;;;8.90;99.90;;;;;;5263274;27;20147;-61
2021/05/26 02:17:16;;;;;;;5.37;3.47;;;9.00;99.90;;;;;;5263563;27;20112;-61
2021/05/26 02:19:42;;;;;;;7.33;3.60;;;9.00;99.90;;;;;;5261840;27;20618;-62
2021/05/26 02:22:09;;;;;;;7.47;4.37;;;9.10;99.90;;;;;;5261699;27;20516;-60
2021/05/26 02:24:36;;;;;;;6.97;4.67;;;9.20;99.90;;;;;;5259643;27;20147;-62
2021/05/26 02:27:03;;;;;;;6.33;4.80;;;9.20;99.90;;;;;;5261846;27;20138;-63
2021/05/26 02:29:29;;;;;;;10.70;5.33;;;9.20;99.90;;;;;;5259746;27;20109;-63
2021/05/26 02:31:56;;;;;;;8.63;5.60;;;9.20;99.90;;;;;;5259620;27;20143;-63
2021/05/26 02:34:23;;;;;;;7.43;6.00;;;9.20;99.90;;;;;;5261360;27;20148;-63
2021/05/26 02:36:49;;;;;;;13.43;6.13;;;9.20;99.90;;;;;;5261615;27;20518;-63
2021/05/26 02:39:16;;;;;;;11.33;6.93;;;9.10;99.90;;;;;;5262610;27;20130;-61
2021/05/26 02:41:43;;;;;;;9.80;6.77;;;9.20;99.90;;;;;;5260659;27;20513;-60
2021/05/26 02:44:09;;;;;;;11.33;6.37;;;9.20;99.90;;;;;;5260565;27;20122;-64
2021/05/26 02:46:35;;;;;;;13.40;7.90;;;9.30;99.90;;;;;;5260823;27;20436;-62
2021/05/26 02:49:04;;;;;;;12.53;7.00;;;9.20;99.90;;;;;;5259668;27;20126;-60
2021/05/26 02:51:31;;;;;;;19.60;9.73;;;9.10;99.90;;;;;;5259661;27;20110;-61
2021/05/26 02:53:57;;;;;;;14.40;8.30;;;9.20;99.90;;;;;;5260578;27;20106;-63
2021/05/26 02:56:23;;;;;;;14.10;8.03;;;9.10;99.90;;;;;;5259950;27;20159;-64
2021/05/26 02:58:50;;;;;;;20.83;9.57;;;9.10;99.90;;;;;;5260467;27;20549;-61
2021/05/26 03:01:16;;;;;;;13.83;8.77;;;9.10;99.90;;;;;;5260618;27;20506;-61
2021/05/26 03:03:43;;;;;;;18.50;10.30;;;9.10;99.90;;;;;;5260828;27;20224;-62
2021/05/26 03:06:10;;;;;;;16.77;9.67;;;9.10;99.90;;;;;;5261464;27;20129;-61
2021/05/26 03:08:36;;;;;;;16.40;10.00;;;9.20;99.90;;;;;;5260609;27;20151;-61
2021/05/26 03:11:03;;;;;;;19.27;10.37;;;9.20;99.90;;;;;;5260518;27;20179;-61
2021/05/26 03:13:30;;;;;;;24.07;11.83;;;9.30;99.90;;;;;;5260643;27;20132;-63
2021/05/26 03:15:56;;;;;;;18.20;10.87;;;9.30;99.90;;;;;;5260698;27;20131;-62
2021/05/26 03:18:23;;;;;;;23.53;11.03;;;9.40;99.90;;;;;;5260357;27;20126;-63
2021/05/26 03:20:50;;;;;;;21.63;11.23;;;9.40;99.90;;;;;;5260162;27;20522;-61
2021/05/26 03:23:18;;;;;;;21.03;12.40;;;9.50;99.90;;;;;;5261526;27;20136;-64
2021/05/26 03:25:46;;;;;;;27.73;12.00;;;9.50;99.90;;;;;;5259728;27;20557;-63
2021/05/26 03:28:12;;;;;;;30.60;13.10;;;9.60;99.90;;;;;;5260550;27;20111;-63
2021/05/26 03:30:39;;;;;;;19.87;11.40;;;9.60;99.90;;;;;;5262379;27;20109;-62
2021/05/26 03:33:06;;;;;;;21.50;11.67;;;9.60;99.90;;;;;;5262332;27;20169;-63
2021/05/26 03:35:34;;;;;;;24.30;11.23;;;9.60;99.90;;;;;;5261837;27;20107;-61
2021/05/26 03:38:01;;;;;;;25.17;10.67;;;9.60;99.90;;;;;;5260870;27;20120;-65
2021/05/26 03:40:28;;;;;;;28.13;10.40;;;9.60;99.90;;;;;;5260451;27;20130;-63
2021/05/26 03:42:54;;;;;;;22.97;9.70;;;9.70;99.90;;;;;;5260128;27;20146;-65
2021/05/26 03:45:21;;;;;;;24.10;11.20;;;9.70;99.90;;;;;;5260441;27;20117;-63
2021/05/26 03:47:47;;;;;;;15.90;9.57;;;9.60;99.90;;;;;;5262903;27;20118;-61
2021/05/26 03:50:13;;;;;;;22.10;9.40;;;9.60;99.90;;;;;;5260242;27;20160;-62
2021/05/26 03:52:40;;;;;;;21.87;9.20;;;9.60;99.90;;;;;;5260944;27;20123;-62
2021/05/26 03:55:09;;;;;;;22.57;9.30;;;9.60;99.90;;;;;;5261324;27;20186;-62
2021/05/26 03:57:36;;;;;;;19.93;8.20;;;9.60;99.90;;;;;;5259906;27;20107;-64
2021/05/26 04:00:05;;;;;;;24.20;8.43;;;9.60;99.90;;;;;;5260996;27;20141;-64
2021/05/26 04:02:31;;;;;;;15.03;7.57;;;9.60;99.90;;;;;;5260029;27;20439;-66
2021/05/26 04:04:58;;;;;;;16.10;6.37;;;9.50;99.90;;;;;;5260242;27;20110;-64
2021/05/26 04:07:24;;;;;;;17.43;7.00;;;9.50;99.90;;;;;;5260413;27;20122;-63
2021/05/26 04:09:50;;;;;;;22.40;7.20;;;9.60;99.90;;;;;;5259898;27;20174;-65
2021/05/26 04:12:17;;;;;;;15.50;6.27;;;9.60;99.90;;;;;;5259883;27;20145;-62
2021/05/26 04:14:44;;;;;;;14.17;6.07;;;9.60;99.90;;;;;;5260136;27;20169;-65
2021/05/26 04:17:10;;;;;;;19.57;6.10;;;9.60;99.90;;;;;;5260486;27;20465;-63
2021/05/26 04:19:37;;;;;;;19.47;6.93;;;9.70;99.90;;;;;;5260143;27;20161;-63
2021/05/26 04:22:03;;;;;;;15.00;7.00;;;9.70;99.90;;;;;;5262702;27;20187;-65
2021/05/26 04:24:30;;;;;;;14.80;6.73;;;9.70;99.90;;;;;;5259846;27;20166;-63
2021/05/26 04:26:56;;;;;;;16.47;6.83;;;9.70;99.90;;;;;;5260265;27;20141;-63
2021/05/26 04:29:22;;;;;;;16.50;6.13;;;9.80;99.90;;;;;;5262695;27;20112;-62
2021/05/26 04:31:50;;;;;;;12.50;6.97;;;9.80;99.90;;;;;;5262172;27;20184;-62
2021/05/26 04:34:16;;;;;;;13.53;6.20;;;9.80;99.90;;;;;;5261749;27;20469;-65
2021/05/26 04:36:43;;;;;;;18.73;7.63;;;9.90;99.90;;;;;;5260397;27;20145;-62
2021/05/26 04:39:09;;;;;;;18.80;7.90;;;10.00;99.90;;;;;;5260148;27;20103;-64
2021/05/26 04:41:35;;;;;;;17.20;7.13;;;10.00;99.90;;;;;;5260141;27;20514;-63
2021/05/26 04:44:02;;;;;;;20.00;8.07;;;10.00;99.90;;;;;;5260177;27;20154;-64
2021/05/26 04:46:28;;;;;;;16.20;7.70;;;10.10;99.90;;;;;;5261491;27;20105;-63
2021/05/26 04:48:55;;;;;;;16.90;7.80;;;10.00;99.90;;;;;;5261838;27;20109;-64
2021/05/26 04:51:22;;;;;;;19.60;8.83;;;10.10;99.90;;;;;;5260980;27;20185;-64
2021/05/26 04:53:48;;;;;;;17.30;8.13;;;10.00;99.90;;;;;;5261151;27;20127;-63
2021/05/26 04:56:14;;;;;;;20.07;9.30;;;10.00;99.90;;;;;;5261998;27;20108;-63
2021/05/26 04:58:42;;;;;;;23.17;9.67;;;9.90;99.90;;;;;;5262089;27;20419;-64
2021/05/26 05:01:08;;;;;;;23.47;10.73;;;9.90;99.90;;;;;;5262009;27;20118;-64
2021/05/26 05:03:34;;;;;;;20.47;11.20;;;9.80;99.90;;;;;;5263965;27;20108;-63
2021/05/26 05:06:01;;;;;;;22.73;11.07;;;9.80;99.90;;;;;;5263037;27;20505;-64
2021/05/26 05:08:28;;;;;;;21.67;11.23;;;9.80;99.90;;;;;;5262928;27;20119;-64
2021/05/26 05:10:58;;;;;;;22.63;11.00;;;9.90;99.90;;;;;;5261950;27;20439;-65
2021/05/26 05:13:25;;;;;;;18.87;10.87;;;9.90;99.90;;;;;;5261232;27;20107;-63
2021/05/26 05:15:51;;;;;;;21.97;11.00;;;10.10;99.90;;;;;;5261095;27;20548;-62
2021/05/26 05:18:18;;;;;;;20.70;11.37;;;10.30;99.90;;;;;;5261700;27;20436;-63
2021/05/26 05:20:47;;;;;;;24.90;11.40;;;10.40;99.90;;;;;;5261352;27;20118;-63
2021/05/26 05:23:14;;;;;;;19.87;10.33;;;10.40;99.90;;;;;;5261788;27;20142;-64
2021/05/26 05:25:41;;;;;;;22.90;11.03;;;10.40;99.90;;;;;;5261012;27;20154;-63
2021/05/26 05:28:07;;;;;;;18.87;11.60;;;10.40;99.90;;;;;;5260997;27;20123;-63
2021/05/26 05:30:33;;;;;;;19.33;11.30;;;10.40;99.90;;;;;;5258606;27;20186;-63
2021/05/26 05:33:00;;;;;;;22.63;11.27;;;10.50;99.90;;;;;;5260935;27;20108;-64
2021/05/26 05:35:27;;;;;;;18.87;11.37;;;10.50;99.90;;;;;;5261221;27;20107;-67
2021/05/26 05:37:54;;;;;;;19.27;10.40;;;10.60;99.90;;;;;;5261978;27;20110;-65
2021/05/26 05:40:21;;;;;;;21.07;11.70;;;10.60;99.90;;;;;;5262289;27;20110;-63
2021/05/26 05:42:47;;;;;;;17.20;10.60;;;10.60;99.90;;;;;;5262190;27;20104;-63
2021/05/26 05:45:16;;;;;;;24.87;12.03;;;10.50;99.90;;;;;;5262058;27;20116;-63
2021/05/26 05:48:29;;;;;;;22.70;11.90;;;10.40;99.90;;;;;;5260721;27;20139;-63
2021/05/26 05:51:10;;;;;;;19.07;11.80;;;10.40;99.90;;;;;;5261156;27;20117;-63
2021/05/26 05:53:59;;;;;;;21.30;11.50;;;10.50;99.90;;;;;;5261572;27;20120;-64
2021/05/26 05:56:29;;;;;;;21.70;11.33;;;10.60;99.90;;;;;;5152716;27;20131;-63
2021/05/26 05:58:55;;;;;;;22.37;14.13;;;10.70;99.90;;;;;;5153925;27;20139;-63
2021/05/26 06:01:21;;;;;;;22.90;13.10;;;10.80;99.90;;;;;;5152738;27;20125;-63
2021/05/26 06:03:58;;;;;;;22.80;12.10;;;11.00;99.90;;;;;;5152945;27;20476;-61
2021/05/26 06:06:24;;;;;;;25.53;13.90;;;11.00;99.90;;;;;;5155350;27;20227;-64
2021/05/26 06:08:50;;;;;;;18.43;12.43;;;10.90;99.90;;;;;;5153767;27;20472;-64
2021/05/26 06:11:18;;;;;;;28.37;13.13;;;11.10;99.90;;;;;;5152755;27;20530;-64
2021/05/26 06:13:48;;;;;;;16.57;12.67;;;11.50;99.90;;;;;;5153459;27;20141;-64
2021/05/26 06:16:16;;;;;;;19.23;12.43;;;11.60;99.90;;;;;;5153011;27;20166;-63
2021/05/26 06:18:43;;;;;;;22.40;13.50;;;11.50;99.90;;;;;;5152839;27;20137;-63
2021/05/26 06:21:12;;;;;;;23.73;13.47;;;11.30;99.90;;;;;;5153118;27;20478;-64
2021/05/26 06:23:39;;;;;;;23.33;13.87;;;11.20;99.90;;;;;;5152324;27;20144;-65
2021/05/26 06:26:12;;;;;;;19.67;13.00;;;11.20;99.90;;;;;;5152147;27;20136;-66
2021/05/26 06:28:40;;;;;;;20.73;13.87;;;11.30;99.90;;;;;;5153239;27;20105;-64
2021/05/26 06:31:07;;;;;;;20.03;13.40;;;11.30;99.90;;;;;;5155636;27;20112;-64
2021/05/26 06:33:33;;;;;;;18.93;13.10;;;11.40;99.90;;;;;;5210641;27;20150;-63
2021/05/26 06:36:00;;;;;;;24.90;14.80;;;11.50;99.90;;;;;;5261319;27;20110;-64
2021/05/26 06:38:32;;;;;;;21.43;13.60;;;11.60;99.90;;;;;;5261033;27;20119;-65
2021/05/26 06:40:58;;;;;;;23.63;13.30;;;11.60;99.90;;;;;;5261050;27;20116;-63
2021/05/26 06:43:27;;;;;;;22.30;14.77;;;11.70;99.90;;;;;;5260452;27;20145;-63
2021/05/26 06:45:53;;;;;;;25.77;15.90;;;11.70;99.90;;;;;;5261171;27;20147;-61
2021/05/26 06:48:24;;;;;;;18.67;13.73;;;11.60;99.90;;;;;;5257654;27;20141;-65
2021/05/26 06:50:50;;;;;;;24.00;14.90;;;11.60;99.90;;;;;;5259589;27;20110;-63
2021/05/26 06:53:18;;;;;;;22.73;15.03;;;11.60;99.90;;;;;;5262068;27;20107;-62
2021/05/26 06:55:44;;;;;;;21.40;14.17;;;11.80;99.90;;;;;;5261156;27;20504;-63
2021/05/26 06:58:11;;;;;;;21.67;14.70;;;11.80;99.90;;;;;;5261025;27;20173;-65
2021/05/26 07:00:37;;;;;;;27.77;14.83;;;11.80;99.90;;;;;;5261902;27;20156;-64
2021/05/26 07:03:04;;;;;;;20.77;14.53;;;12.00;99.90;;;;;;5260784;27;20558;-64
2021/05/26 07:05:33;;;;;;;25.90;14.90;;;12.10;99.90;;;;;;5260531;27;20121;-64
2021/05/26 07:08:02;;;;;;;20.70;14.00;;;12.10;99.90;;;;;;5260837;27;20448;-64
2021/05/26 07:10:29;;;;;;;26.70;16.27;;;12.30;99.90;;;;;;5260582;27;20115;-63
2021/05/26 07:13:01;;;;;;;19.93;14.70;;;12.30;99.90;;;;;;5261214;27;20107;-65
2021/05/26 07:15:32;;;;;;;26.77;16.17;;;12.10;99.90;;;;;;5262664;27;20108;-65
2021/05/26 07:18:02;;;;;;;21.93;15.50;;;11.90;99.90;;;;;;5260815;27;20103;-63
2021/05/26 07:20:36;;;;;;;21.63;15.27;;;11.90;99.90;;;;;;5262789;27;20111;-64
2021/05/26 07:23:03;;;;;;;22.97;14.87;;;11.80;99.90;;;;;;5261494;27;20109;-63
2021/05/26 07:25:29;;;;;;;21.67;15.00;;;11.70;99.90;;;;;;5260635;27;20470;-63
2021/05/26 07:27:56;;;;;;;17.97;14.27;;;11.70;99.90;;;;;;5263250;27;20546;-65
2021/05/26 07:30:23;;;;;;;19.50;14.47;;;12.00;99.90;;;;;;5261700;27;20511;-63
2021/05/26 07:32:49;;;;;;;19.73;13.83;;;12.30;99.90;;;;;;5263073;27;20107;-64
2021/05/26 07:35:16;;;;;;;19.47;13.53;;;12.60;99.90;;;;;;5259526;27;20122;-62
2021/05/26 07:37:43;;;;;;;21.40;12.37;;;12.70;99.90;;;;;;5260748;27;20126;-63
2021/05/26 07:40:12;;;;;;;16.33;11.83;;;13.30;99.90;;;;;;5260453;27;20107;-63
2021/05/26 07:42:38;;;;;;;16.53;11.43;;;14.30;99.90;;;;;;5260414;27;20108;-66
2021/05/26 07:45:08;;;;;;;14.07;9.50;;;15.20;99.90;;;;;;5262991;27;20114;-65
2021/05/26 07:47:35;;;;;;;15.97;8.50;;;17.30;99.90;;;;;;5261146;27;20107;-63
2021/05/26 07:50:02;;;;;;;12.30;7.20;;;18.80;98.80;;;;;;5259984;27;20110;-62
2021/05/26 07:52:30;;;;;;;9.17;5.23;;;22.50;95.70;;;;;;5260710;27;20133;-64
2021/05/26 07:54:58;;;;;;;10.60;5.80;;;27.80;73.30;;;;;;5261155;27;20106;-60
2021/05/26 07:57:25;;;;;;;15.20;6.37;;;27.60;60.30;;;;;;5260564;27;20104;-64
2021/05/26 07:59:51;;;;;;;9.03;5.30;;;25.40;66.60;;;;;;5261038;27;20127;-61
2021/05/26 08:02:18;;;;;;;8.47;4.97;;;21.90;78.00;;;;;;5260276;27;20116;-64
2021/05/26 08:04:44;;;;;;;9.87;5.60;;;19.30;91.00;;;;;;5262291;27;20466;-63
2021/05/26 08:07:11;;;;;;;10.10;6.67;;;17.30;95.90;;;;;;5259255;27;20242;-61
2021/05/26 08:09:38;;;;;;;7.17;5.20;;;16.70;98.40;;;;;;5259239;27;20157;-62
2021/05/26 08:12:09;;;;;;;9.47;5.07;;;17.40;97.80;;;;;;5260108;27;20152;-64
2021/05/26 08:14:35;;;;;;;6.97;4.93;;;17.80;96.90;;;;;;5260380;27;20161;-63
2021/05/26 08:17:02;;;;;;;12.57;5.60;;;18.90;95.20;;;;;;5260272;27;20112;-61
2021/05/26 08:19:31;;;;;;;11.53;5.57;;;20.80;92.00;;;;;;5261227;27;20118;-62
2021/05/26 08:22:01;;;;;;;10.27;5.83;;;20.10;90.90;;;;;;5260018;27;20123;-62
2021/05/26 08:24:28;;;;;;;7.83;5.27;;;18.90;93.50;;;;;;5259518;27;20110;-64
2021/05/26 08:26:54;;;;;;;17.73;6.77;;;17.80;95.00;;;;;;5258751;27;20182;-63
2021/05/26 08:29:21;;;;;;;11.80;6.43;;;16.70;97.60;;;;;;5261375;27;20118;-63
2021/05/26 08:31:49;;;;;;;12.47;6.90;;;15.70;98.80;;;;;;5260852;27;20404;-64
2021/05/26 08:34:18;;;;;;;11.83;6.90;;;15.20;99.90;;;;;;5261082;27;20115;-63
2021/05/26 08:36:48;;;;;;;12.63;6.90;;;15.30;99.90;;;;;;5260472;27;20116;-63
2021/05/26 08:39:17;;;;;;;14.17;6.77;;;15.80;99.90;;;;;;5260803;27;20154;-62
2021/05/26 08:41:45;;;;;;;10.80;6.80;;;15.70;99.90;;;;;;5260556;27;20140;-60
2021/05/26 08:44:13;;;;;;;9.93;6.87;;;15.30;99.90;;;;;;5260486;27;20179;-64
2021/05/26 08:46:41;;;;;;;9.07;3.80;;;14.80;99.90;;;;;;5261951;27;20191;-62
2021/05/26 08:49:09;;;;;;;8.83;3.10;;;13.90;99.90;;;;;;5261690;27;20146;-62
2021/05/26 08:51:37;;;;;;;9.80;4.07;;;12.70;99.90;;;;;;5260276;27;20142;-61
2021/05/26 08:54:04;;;;;;;5.50;3.67;;;12.10;99.90;;;;;;5260675;27;20142;-61
2021/05/26 08:56:31;;;;;;;9.53;3.10;;;11.30;99.90;;;;;;5260551;27;20537;-62
2021/05/26 08:59:00;;;;;;;5.20;3.50;;;11.10;99.90;;;;;;5260242;27;20435;-63
2021/05/26 09:01:26;;;;;;;6.77;3.90;;;11.00;99.90;;;;;;5261628;27;20153;-61
2021/05/26 09:03:56;;;;;;;7.00;4.63;;;10.90;99.90;;;;;;5260472;27;20130;-61
2021/05/26 09:06:42;;;;;;;6.70;4.27;;;11.00;99.90;;;;;;5259333;27;20527;-62
2021/05/26 09:09:08;;;;;;;11.93;6.40;;;11.20;99.90;;;;;;5260001;27;20125;-62
2021/05/26 09:11:35;;;;;;;8.50;5.87;;;11.70;99.90;;;;;;5262564;27;20164;-61
2021/05/26 09:14:11;;;;;;;9.33;6.10;;;12.20;99.90;;;;;;5259906;27;20101;-62
2021/05/26 09:16:38;;;;;;;6.17;5.40;;;12.40;99.90;;;;;;5260303;27;20128;-62
2021/05/26 09:19:06;;;;;;;12.43;6.67;;;12.40;99.90;;;;;;5260028;27;20162;-61
2021/05/26 09:21:40;;;;;;;9.57;5.73;;;12.40;99.90;;;;;;5260850;27;20204;-62
2021/05/26 09:24:29;;;;;;;9.93;5.27;;;12.40;99.90;;;;;;5261765;27;20138;-62
2021/05/26 09:26:58;;;;;;;11.80;5.00;;;12.40;99.90;;;;;;5260303;27;20548;-62
2021/05/26 09:29:25;;;;;;;8.27;4.43;;;12.60;99.90;;;;;;5259432;27;20177;-64
2021/05/26 09:32:09;;;;;;;10.30;4.00;;;12.90;99.90;;;;;;5259628;27;20152;-63
2021/05/26 09:34:37;;;;;;;7.60;3.87;;;13.10;99.90;;;;;;5261650;27;20107;-63
2021/05/26 09:37:07;;;;;;;9.03;4.20;;;13.20;99.90;;;;;;5263307;27;20680;-64
2021/05/26 09:39:50;;;;;;;11.10;4.33;;;13.30;99.90;;;;;;5262042;27;20107;-63
2021/05/26 09:42:32;;;;;;;8.53;3.70;;;13.70;99.90;;;;;;5260633;27;20446;-63
2021/05/26 09:45:20;;;;;;;10.00;4.47;;;13.90;99.90;;;;;;5261066;27;20117;-61
2021/05/26 09:47:48;;;;;;;10.37;4.77;;;14.00;99.90;;;;;;5261173;27;20118;-63
2021/05/26 09:50:19;;;;;;;5.47;4.20;;;14.20;99.90;;;;;;5260959;27;20103;-62
2021/05/26 09:53:04;;;;;;;9.50;5.13;;;14.50;99.90;;;;;;5260728;27;20118;-63
2021/05/26 09:55:33;;;;;;;13.13;4.80;;;14.80;99.90;;;;;;5260015;27;20114;-64
2021/05/26 09:58:00;;;;;;;6.63;3.70;;;15.10;99.90;;;;;;5261253;27;20108;-62
2021/05/26 10:00:27;;;;;;;9.30;3.87;;;15.40;99.90;;;;;;5261788;27;20141;-63
2021/05/26 10:02:57;;;;;;;8.63;4.27;;;15.20;99.90;;;;;;5261238;27;20267;-62
2021/05/26 10:05:25;;;;;;;7.10;4.57;;;15.10;99.90;;;;;;5261310;27;20436;-62
2021/05/26 10:07:53;;;;;;;7.37;4.10;;;14.80;99.90;;;;;;5261324;27;20115;-61
2021/05/26 10:10:21;;;;;;;7.53;3.47;;;14.50;99.90;;;;;;5261624;27;20115;-62
2021/05/26 10:12:53;;;;;;;4.57;2.40;;;14.20;99.90;;;;;;5261580;27;20126;-62
2021/05/26 10:15:20;;;;;;;4.03;2.23;;;13.80;99.90;;;;;;5260531;27;20173;-62
2021/05/26 10:17:52;;;;;;;5.37;2.20;;;13.40;99.90;;;;;;5261191;27;20111;-61
2021/05/26 10:20:20;;;;;;;5.53;2.33;;;13.20;99.90;;;;;;5260580;27;20115;-61
2021/05/26 10:22:51;;;;;;;4.83;2.27;;;13.90;99.90;;;;;;5262267;27;20184;-61
2021/05/26 10:25:19;;;;;;;3.90;2.30;;;14.40;99.90;;;;;;5260544;27;20429;-63
2021/05/26 10:27:48;;;;;;;6.50;2.50;;;14.20;99.90;;;;;;5261203;27;20108;-63
2021/05/26 10:30:18;;;;;;;3.47;2.60;;;14.20;99.90;;;;;;5261130;27;20132;-62
2021/05/26 10:32:55;;;;;;;5.33;2.70;;;14.20;99.90;;;;;;5260706;27;20497;-62
2021/05/26 10:35:23;;;;;;;3.83;2.23;;;14.00;99.90;;;;;;5262997;27;20177;-61
2021/05/26 10:38:04;;;;;;;3.70;2.20;;;14.10;99.90;;;;;;5260609;27;20426;-62
2021/05/26 10:40:38;;;;;;;3.80;2.83;;;14.40;99.90;;;;;;5261991;27;20107;-62
2021/05/26 10:43:31;;;;;;;6.53;2.60;;;14.60;99.90;;;;;;5260878;27;20142;-63
2021/05/26 10:46:00;;;;;;;3.93;2.50;;;14.60;99.90;;;;;;5261851;27;20128;-61
2021/05/26 10:49:10;;;;;;;3.53;2.27;;;14.90;99.90;;;;;;5262431;27;20144;-61
2021/05/26 10:52:10;;;;;;;3.67;2.40;;;14.80;99.90;;;;;;5261702;27;20127;-62
2021/05/26 10:54:59;;;;;;;4.80;2.30;;;14.40;99.90;;;;;;5264210;27;20107;-62
2021/05/26 10:57:30;;;;;;;5.47;1.90;;;14.20;99.90;;;;;;5261066;27;20143;-61
2021/05/26 11:00:29;;;;;;;4.17;1.37;;;14.20;99.90;;;;;;5261087;27;20149;-62
2021/05/26 11:03:41;;;;;;;3.37;1.47;;;14.30;99.90;;;;;;5259639;27;20115;-63
2021/05/26 11:06:38;;;;;;;2.97;1.70;;;14.50;99.90;;;;;;5174810;27;20549;-63
2021/05/26 11:09:09;;;;;;;4.30;1.50;;;14.90;99.90;;;;;;5173535;27;20123;-61
2021/05/26 11:11:49;;;;;;;2.30;1.40;;;14.80;99.90;;;;;;5174432;27;20563;-61
2021/05/26 11:14:40;;;;;;;3.63;2.07;;;14.80;99.90;;;;;;5175035;27;20112;-61
2021/05/26 11:17:31;;;;;;;4.33;1.80;;;14.70;99.90;;;;;;5175305;27;20148;-61
2021/05/26 11:20:15;;;;;;;3.30;1.80;;;14.80;99.90;;;;;;5172714;27;20129;-61
2021/05/26 11:22:42;;;;;;;2.27;1.60;;;14.80;99.90;;;;;;5172423;27;20145;-61
2021/05/26 11:25:11;;;;;;;3.10;2.20;;;14.50;99.90;;;;;;5166323;27;20160;-61
2021/05/26 11:27:47;;;;;;;5.17;1.77;;;14.20;99.90;;;;;;5175466;27;20136;-62
2021/05/26 11:30:16;;;;;;;3.40;2.10;;;14.50;99.90;;;;;;5173575;27;20214;-61
2021/05/26 11:32:43;;;;;;;2.03;1.67;;;14.80;99.90;;;;;;5173535;27;20098;-61
2021/05/26 11:35:10;;;;;;;2.17;1.40;;;14.60;99.90;;;;;;5173098;27;20172;-61
2021/05/26 11:37:41;;;;;;;1.63;1.47;;;14.30;99.90;;;;;;5173196;27;20175;-63
2021/05/26 11:40:28;;;;;;;3.57;1.33;;;14.50;99.90;;;;;;5173147;27;20111;-61
2021/05/26 11:42:58;;;;;;;3.53;1.23;;;14.60;99.90;;;;;;5222550;27;20122;-61
2021/05/26 11:45:24;;;;;;;2.93;1.03;;;14.90;99.90;;;;;;5262851;27;20146;-61
2021/05/26 11:47:52;;;;;;;3.23;1.00;;;15.20;99.90;;;;;;5260365;27;20455;-62
2021/05/26 11:50:26;;;;;;;0.97;0.70;;;15.30;97.90;;;;;;5260264;27;20140;-61
2021/05/26 11:52:54;;;;;;;1.93;0.70;;;15.10;97.10;;;;;;5260505;27;20111;-60
2021/05/26 11:55:22;;;;;;;2.73;0.97;;;14.60;97.70;;;;;;5261020;27;20126;-61
2021/05/26 11:57:51;;;;;;;0.83;0.67;;;14.50;99.10;;;;;;5260728;27;20122;-61
2021/05/26 12:00:24;;;;;;;1.43;0.90;;;14.80;99.90;;;;;;5261173;27;20133;-61
2021/05/26 12:02:58;;;;;;;1.80;0.80;;;15.00;99.20;;;;;;5260708;27;20134;-61
2021/05/26 12:05:42;;;;;;;1.77;0.80;;;15.10;99.50;;;;;;5261907;27;20165;-61
2021/05/26 12:08:16;;;;;;;2.93;0.93;;;14.80;98.40;;;;;;5259723;27;20152;-61
2021/05/26 12:10:43;;;;;;;2.50;0.90;;;14.80;99.40;;;;;;5262827;27;20138;-61
2021/05/26 12:13:10;;;;;;;3.30;0.90;;;14.80;98.60;;;;;;5260610;27;20142;-61
2021/05/26 12:15:38;;;;;;;1.67;1.00;;;15.20;97.60;;;;;;5260068;27;20170;-61
2021/05/26 12:18:07;;;;;;;2.10;1.07;;;15.40;96.90;;;;;;5262170;27;20162;-61
2021/05/26 12:23:00;;;;;;;3.40;1.80;;;15.20;97.40;;;;;;5199226;27;1674107;-61
2021/05/26 12:25:37;;;;;;;2.73;1.40;;;14.90;97.50;;;;;;5260294;27;20164;-62
2021/05/26 12:28:18;;;;;;;2.90;1.50;;;14.60;98.60;;;;;;5263128;27;20123;-61
2021/05/26 12:30:46;;;;;;;6.10;1.77;;;14.60;99.40;;;;;;5260402;27;20458;-61
2021/05/26 12:33:17;;;;;;;3.73;1.90;;;14.20;98.50;;;;;;5260598;27;20126;-62
2021/05/26 12:35:58;;;;;;;6.23;2.03;;;14.10;99.20;;;;;;5260592;27;20622;-61
2021/05/26 12:38:24;;;;;;;6.53;2.10;;;14.40;99.30;;;;;;5260466;27;20416;-61
2021/05/26 12:40:50;;;;;;;4.87;2.20;;;15.00;98.90;;;;;;5261563;27;20108;-61
2021/05/26 12:43:37;;;;;;;3.87;2.33;;;15.50;98.40;;;;;;5260187;27;20119;-62
2021/05/26 12:46:07;;;;;;;6.70;2.00;;;15.80;99.10;;;;;;5260925;27;20103;-61
2021/05/26 12:48:35;;;;;;;5.03;1.97;;;15.90;95.80;;;;;;5259319;27;20540;-62
2021/05/26 12:51:01;;;;;;;3.70;2.10;;;15.90;95.40;;;;;;5260452;27;20107;-61
2021/05/26 12:53:32;;;;;;;3.77;2.07;;;15.90;94.80;;;;;;5259352;27;20107;-61
2021/05/26 12:55:59;;;;;;;3.73;2.07;;;15.90;95.70;;;;;;5259447;27;20119;-61
2021/05/26 12:58:26;;;;;;;4.80;1.93;;;15.60;95.30;;;;;;5260637;27;20107;-61